Time;durP1;ratioP1;P1;durP2;ratioP2;P2;SDS_P1;SDS_P2;PMS_P1;PMS_P2;Temp;Humidity;BMP_temperature;BMP_pressure;BME280_temperature;BME280_humidity;BME280_pressure;Samples;Min_cycle;Max_cycle;Signal;HPM_P1;HPM_P2
2021/08/04 00:01:08;;;;;;;5.30;1.90;;;;;;;;;;10364866;28;20301;-70
2021/08/04 00:06:12;;;;;;;4.23;1.90;;;;;;;;;;10361075;28;20226;-69
2021/08/04 00:11:15;;;;;;;3.73;1.90;;;;;;;;;;10364737;28;20198;-70
2021/08/04 00:16:17;;;;;;;4.10;2.13;;;;;;;;;;10369633;28;20218;-70
2021/08/04 00:21:21;;;;;;;4.70;2.13;;;;;;;;;;10365609;28;20531;-71
2021/08/04 00:26:24;;;;;;;3.60;1.87;;;;;;;;;;10365286;28;20300;-71
2021/08/04 00:31:26;;;;;;;4.13;1.83;;;;;;;;;;10365201;28;20559;-70
2021/08/04 00:36:31;;;;;;;4.70;1.90;;;;;;;;;;10367683;28;20214;-69
2021/08/04 00:41:36;;;;;;;3.50;1.83;;;;;;;;;;10362051;28;20701;-70
2021/08/04 00:46:40;;;;;;;5.33;2.10;;;;;;;;;;10367998;28;20228;-69
2021/08/04 00:51:44;;;;;;;4.23;2.20;;;;;;;;;;10368699;28;20666;-70
2021/08/04 00:56:46;;;;;;;4.20;2.20;;;;;;;;;;10362014;28;20223;-68
2021/08/04 01:01:52;;;;;;;5.27;2.17;;;;;;;;;;10360804;28;20300;-68
2021/08/04 01:07:02;;;;;;;4.27;1.93;;;;;;;;;;10366875;28;20214;-70
2021/08/04 01:12:06;;;;;;;4.33;2.07;;;;;;;;;;10363477;28;20569;-69
2021/08/04 01:17:09;;;;;;;4.37;2.20;;;;;;;;;;10367145;28;20214;-71
2021/08/04 01:22:17;;;;;;;6.80;2.10;;;;;;;;;;10366788;28;20686;-75
2021/08/04 01:27:22;;;;;;;5.83;2.50;;;;;;;;;;10358412;28;20272;-72
2021/08/04 01:32:26;;;;;;;6.27;2.43;;;;;;;;;;10360889;28;20194;-72
2021/08/04 01:37:28;;;;;;;3.17;1.73;;;;;;;;;;10367726;28;20246;-72
2021/08/04 01:42:34;;;;;;;4.67;2.27;;;;;;;;;;10360639;28;20216;-74
2021/08/04 01:47:38;;;;;;;6.83;2.50;;;;;;;;;;10366021;28;20709;-73
2021/08/04 01:52:40;;;;;;;6.03;2.40;;;;;;;;;;10360989;28;20210;-72
2021/08/04 01:57:45;;;;;;;5.20;2.50;;;;;;;;;;10359329;28;20223;-73
2021/08/04 02:02:47;;;;;;;4.63;2.50;;;;;;;;;;10360298;28;20214;-73
2021/08/04 02:07:58;;;;;;;5.30;2.30;;;;;;;;;;10363630;28;20244;-74
2021/08/04 02:13:05;;;;;;;5.00;2.30;;;;;;;;;;10363715;28;20256;-72
2021/08/04 02:18:09;;;;;;;4.60;2.23;;;;;;;;;;10365631;28;20567;-72
2021/08/04 02:23:13;;;;;;;5.00;2.60;;;;;;;;;;10360260;28;20206;-71
2021/08/04 02:28:22;;;;;;;5.63;2.50;;;;;;;;;;10359780;28;20289;-74
2021/08/04 02:33:25;;;;;;;5.50;2.40;;;;;;;;;;10359595;28;20617;-71
2021/08/04 02:38:29;;;;;;;6.07;2.60;;;;;;;;;;10361711;28;20222;-74
2021/08/04 02:43:33;;;;;;;5.33;2.53;;;;;;;;;;10363316;28;20234;-71
2021/08/04 02:48:35;;;;;;;4.97;2.30;;;;;;;;;;10363503;28;20305;-71
2021/08/04 02:53:38;;;;;;;5.60;2.60;;;;;;;;;;10364802;28;20202;-72
2021/08/04 02:58:42;;;;;;;4.40;2.43;;;;;;;;;;10360073;28;20586;-74
2021/08/04 03:03:45;;;;;;;5.40;2.30;;;;;;;;;;10359022;28;20218;-73
2021/08/04 03:08:48;;;;;;;4.80;2.23;;;;;;;;;;10361278;28;20222;-74
2021/08/04 03:13:51;;;;;;;6.13;2.70;;;;;;;;;;10361545;28;20266;-73
2021/08/04 03:18:54;;;;;;;5.50;2.27;;;;;;;;;;10362812;28;20222;-74
2021/08/04 03:23:57;;;;;;;5.20;2.43;;;;;;;;;;10362465;28;20209;-74
2021/08/04 03:29:01;;;;;;;5.83;2.50;;;;;;;;;;10360700;28;20230;-74
2021/08/04 03:34:03;;;;;;;5.07;2.33;;;;;;;;;;10363569;28;20218;-74
2021/08/04 03:39:06;;;;;;;5.20;2.40;;;;;;;;;;10360963;28;20717;-75
2021/08/04 03:44:12;;;;;;;5.27;2.30;;;;;;;;;;10360969;28;20650;-74
2021/08/04 03:49:15;;;;;;;6.50;2.33;;;;;;;;;;10354511;28;20252;-75
2021/08/04 03:54:17;;;;;;;4.73;2.20;;;;;;;;;;10359827;28;20645;-73
2021/08/04 03:59:22;;;;;;;6.87;2.33;;;;;;;;;;10356459;28;20297;-74
2021/08/04 04:04:24;;;;;;;4.97;1.97;;;;;;;;;;10364911;28;20205;-74
2021/08/04 04:09:29;;;;;;;5.07;2.30;;;;;;;;;;10367315;28;20293;-74
2021/08/04 04:14:33;;;;;;;5.50;2.50;;;;;;;;;;10362829;28;20289;-73
2021/08/04 04:19:55;;;;;;;5.70;2.60;;;;;;;;;;10359569;28;20206;-73
2021/08/04 04:24:58;;;;;;;5.47;2.40;;;;;;;;;;10369370;28;20242;-70
2021/08/04 04:30:01;;;;;;;5.77;2.73;;;;;;;;;;10363442;28;20647;-71
2021/08/04 04:35:05;;;;;;;6.40;2.43;;;;;;;;;;10369818;28;20198;-71
2021/08/04 04:40:08;;;;;;;5.50;2.30;;;;;;;;;;10363107;28;20301;-71
2021/08/04 04:45:12;;;;;;;4.50;2.07;;;;;;;;;;10366915;28;20356;-70
2021/08/04 04:50:15;;;;;;;7.00;2.60;;;;;;;;;;10360355;28;20214;-71
2021/08/04 04:55:17;;;;;;;4.63;2.03;;;;;;;;;;10368005;28;20630;-72
2021/08/04 05:00:21;;;;;;;4.60;2.00;;;;;;;;;;10359607;28;20645;-73
2021/08/04 05:05:23;;;;;;;5.07;2.20;;;;;;;;;;10361728;28;20615;-70
2021/08/04 05:10:26;;;;;;;5.03;2.30;;;;;;;;;;10364692;28;20222;-70
2021/08/04 05:15:30;;;;;;;4.53;2.00;;;;;;;;;;10363586;28;20286;-73
2021/08/04 05:20:33;;;;;;;5.17;2.00;;;;;;;;;;10366123;28;20214;-70
2021/08/04 05:25:37;;;;;;;4.00;1.90;;;;;;;;;;10361678;28;20662;-71
2021/08/04 05:30:41;;;;;;;3.67;1.90;;;;;;;;;;10367557;28;20195;-70
2021/08/04 05:35:44;;;;;;;3.80;1.77;;;;;;;;;;10353055;28;20833;-71
2021/08/04 05:40:46;;;;;;;3.10;1.73;;;;;;;;;;10362713;28;20210;-71
2021/08/04 05:45:50;;;;;;;3.63;1.70;;;;;;;;;;10361289;28;20352;-72
2021/08/04 05:50:53;;;;;;;3.27;1.50;;;;;;;;;;10356197;28;20995;-71
2021/08/04 05:55:55;;;;;;;3.30;1.77;;;;;;;;;;10360805;28;20297;-72
2021/08/04 06:00:59;;;;;;;3.63;1.80;;;;;;;;;;10360619;28;20214;-72
2021/08/04 06:06:02;;;;;;;4.50;2.03;;;;;;;;;;10360852;28;20244;-72
2021/08/04 06:11:05;;;;;;;4.60;1.50;;;;;;;;;;10362997;28;20618;-72
2021/08/04 06:16:09;;;;;;;4.53;1.80;;;;;;;;;;10359181;28;20234;-71
2021/08/04 06:21:11;;;;;;;2.90;1.57;;;;;;;;;;10360663;28;20206;-72
2021/08/04 06:26:14;;;;;;;5.03;1.70;;;;;;;;;;10360719;28;20360;-70
2021/08/04 06:31:20;;;;;;;3.30;1.63;;;;;;;;;;10360689;28;20304;-69
2021/08/04 06:36:23;;;;;;;3.70;1.50;;;;;;;;;;10361158;28;20221;-71
2021/08/04 06:41:25;;;;;;;3.90;1.30;;;;;;;;;;10361545;28;20633;-70
2021/08/04 06:46:34;;;;;;;3.53;1.30;;;;;;;;;;10352263;28;20256;-70
2021/08/04 06:51:37;;;;;;;2.60;1.30;;;;;;;;;;10361643;28;20443;-71
2021/08/04 06:56:40;;;;;;;2.73;1.40;;;;;;;;;;10362333;28;20317;-71
2021/08/04 07:01:44;;;;;;;3.23;1.60;;;;;;;;;;10356733;28;20210;-71
2021/08/04 07:06:51;;;;;;;2.90;1.50;;;;;;;;;;10356633;28;20210;-71
2021/08/04 07:11:54;;;;;;;3.70;1.87;;;;;;;;;;10362694;28;20198;-70
2021/08/04 07:16:58;;;;;;;2.20;1.33;;;;;;;;;;10363316;28;20685;-71
2021/08/04 07:22:01;;;;;;;2.77;1.30;;;;;;;;;;10362907;28;20566;-70
2021/08/04 07:27:04;;;;;;;1.57;1.10;;;;;;;;;;10359140;28;20230;-71
2021/08/04 07:32:08;;;;;;;2.77;1.40;;;;;;;;;;10352399;28;20248;-71
2021/08/04 07:37:11;;;;;;;3.03;1.40;;;;;;;;;;10359374;28;20629;-71
2021/08/04 07:42:13;;;;;;;4.80;1.87;;;;;;;;;;10361332;28;20290;-71
2021/08/04 07:47:17;;;;;;;2.40;1.20;;;;;;;;;;10359338;28;20329;-70
2021/08/04 07:52:20;;;;;;;5.83;2.37;;;;;;;;;;10362887;28;20194;-69
2021/08/04 07:57:22;;;;;;;3.07;1.63;;;;;;;;;;10368073;28;20277;-71
2021/08/04 08:02:26;;;;;;;2.00;0.80;;;;;;;;;;10368024;28;20242;-72
2021/08/04 08:07:29;;;;;;;2.10;1.10;;;;;;;;;;10367132;28;20308;-70
2021/08/04 08:12:32;;;;;;;1.77;1.20;;;;;;;;;;10366464;28;20191;-71
2021/08/04 08:17:36;;;;;;;1.90;1.20;;;;;;;;;;10367308;28;20226;-70
2021/08/04 08:22:39;;;;;;;2.10;1.07;;;;;;;;;;10367358;28;20214;-69
2021/08/04 08:27:42;;;;;;;2.07;1.30;;;;;;;;;;10360456;28;20219;-72
2021/08/04 08:32:48;;;;;;;1.90;1.10;;;;;;;;;;10356982;28;20198;-71
2021/08/04 08:37:51;;;;;;;2.03;1.20;;;;;;;;;;10362703;28;20214;-71
2021/08/04 08:42:54;;;;;;;1.57;1.00;;;;;;;;;;10365445;28;20708;-71
2021/08/04 08:47:58;;;;;;;2.13;1.20;;;;;;;;;;10367319;28;20233;-71
2021/08/04 08:53:00;;;;;;;2.43;1.37;;;;;;;;;;10364118;28;20252;-71
2021/08/04 08:58:03;;;;;;;3.07;1.40;;;;;;;;;;10360782;28;20246;-72
2021/08/04 09:03:07;;;;;;;3.93;1.43;;;;;;;;;;10366580;28;20226;-69
2021/08/04 09:08:21;;;;;;;4.80;2.33;;;;;;;;;;10358266;28;20651;-69
2021/08/04 09:13:30;;;;;;;3.73;2.03;;;;;;;;;;10366314;28;20190;-70
2021/08/04 09:18:44;;;;;;;3.60;1.50;;;;;;;;;;10366564;28;20225;-70
2021/08/04 09:23:47;;;;;;;4.53;1.55;;;;;;;;;;10367149;28;20533;-69
2021/08/04 09:28:57;;;;;;;1.95;1.33;;;;;;;;;;10358451;28;20321;-69
2021/08/04 09:34:01;;;;;;;2.72;1.20;;;;;;;;;;10366158;28;20305;-71
2021/08/04 09:39:04;;;;;;;2.60;1.27;;;;;;;;;;10367739;28;20222;-70
2021/08/04 09:44:07;;;;;;;2.78;1.20;;;;;;;;;;10364175;28;23499;-69
2021/08/04 09:49:12;;;;;;;3.60;1.67;;;;;;;;;;10362723;28;20640;-71
2021/08/04 09:54:16;;;;;;;3.03;1.42;;;;;;;;;;10365927;28;20276;-70
2021/08/04 09:59:20;;;;;;;5.22;2.00;;;;;;;;;;10362954;28;20301;-71
2021/08/04 10:04:24;;;;;;;2.45;1.40;;;;;;;;;;10361118;28;20233;-69
2021/08/04 10:09:26;;;;;;;2.55;1.48;;;;;;;;;;10364645;28;20252;-69
2021/08/04 10:14:29;;;;;;;3.85;1.67;;;;;;;;;;10365252;28;20723;-71
2021/08/04 10:19:35;;;;;;;3.65;1.67;;;;;;;;;;10364979;28;20229;-69
2021/08/04 10:24:37;;;;;;;2.83;1.30;;;;;;;;;;10361546;28;20242;-70
2021/08/04 10:29:41;;;;;;;2.85;1.60;;;;;;;;;;10363290;28;20218;-70
2021/08/04 10:34:46;;;;;;;3.28;1.40;;;;;;;;;;10359316;28;20194;-71
2021/08/04 10:39:49;;;;;;;4.03;1.58;;;;;;;;;;10363319;28;20309;-68
2021/08/04 10:44:52;;;;;;;2.72;1.38;;;;;;;;;;10363224;28;20214;-71
2021/08/04 10:50:09;;;;;;;2.17;1.40;;;;;;;;;;10357261;28;20222;-72
2021/08/04 10:55:12;;;;;;;2.47;1.23;;;;;;;;;;10365277;28;20199;-71
2021/08/04 11:00:22;;;;;;;2.80;1.35;;;;;;;;;;10356074;28;20210;-70
2021/08/04 11:05:46;;;;;;;3.78;1.45;;;;;;;;;;10362554;28;20289;-69
2021/08/04 11:10:49;;;;;;;1.90;1.15;;;;;;;;;;10357829;28;20273;-69
2021/08/04 11:15:53;;;;;;;2.38;1.20;;;;;;;;;;10362353;28;20195;-71
2021/08/04 11:21:13;;;;;;;1.65;1.00;;;;;;;;;;10363626;28;20280;-69
2021/08/04 11:26:24;;;;;;;2.05;1.10;;;;;;;;;;10361922;28;20710;-71
2021/08/04 11:31:27;;;;;;;3.53;1.40;;;;;;;;;;10358991;28;20268;-71
2021/08/04 11:36:31;;;;;;;2.00;1.25;;;;;;;;;;10362047;28;20281;-71
2021/08/04 11:41:35;;;;;;;4.25;1.50;;;;;;;;;;10363373;28;20194;-70
2021/08/04 11:46:39;;;;;;;2.13;1.20;;;;;;;;;;10361786;28;20230;-70
2021/08/04 11:51:44;;;;;;;1.80;1.20;;;;;;;;;;10355485;28;20198;-69
2021/08/04 11:56:48;;;;;;;2.50;1.20;;;;;;;;;;10362117;28;20250;-69
2021/08/04 12:01:54;;;;;;;2.95;1.20;;;;;;;;;;10351314;28;20267;-72
2021/08/04 12:07:00;;;;;;;3.47;1.42;;;;;;;;;;10362166;28;20218;-71
2021/08/04 12:12:03;;;;;;;2.33;1.20;;;;;;;;;;10361909;28;20194;-69
2021/08/04 12:17:06;;;;;;;1.65;1.13;;;;;;;;;;10363489;28;20621;-69
2021/08/04 12:22:16;;;;;;;1.75;1.17;;;;;;;;;;10361376;28;20385;-69
2021/08/04 12:27:29;;;;;;;3.78;1.45;;;;;;;;;;10365951;28;20222;-68
2021/08/04 12:32:33;;;;;;;1.77;1.20;;;;;;;;;;10368435;28;20221;-71
2021/08/04 12:37:37;;;;;;;2.05;1.33;;;;;;;;;;10368804;28;20394;-71
2021/08/04 12:42:40;;;;;;;1.58;1.20;;;;;;;;;;10366037;28;20222;-69
2021/08/04 12:47:49;;;;;;;2.20;1.30;;;;;;;;;;10365015;28;20738;-71
2021/08/04 12:52:53;;;;;;;6.50;1.65;;;;;;;;;;10369522;28;20198;-71
2021/08/04 12:58:04;;;;;;;2.42;1.40;;;;;;;;;;10368226;28;20301;-68
2021/08/04 13:03:07;;;;;;;4.53;1.50;;;;;;;;;;10363505;28;20242;-70
2021/08/04 13:08:28;;;;;;;2.78;1.30;;;;;;;;;;10361620;28;20218;-70
2021/08/04 13:13:45;;;;;;;3.40;1.38;;;;;;;;;;10361071;28;20221;-69
2021/08/04 13:18:47;;;;;;;1.87;1.20;;;;;;;;;;10360865;28;20245;-71
2021/08/04 13:23:51;;;;;;;4.17;1.30;;;;;;;;;;10365729;28;20278;-70
2021/08/04 13:28:54;;;;;;;3.30;1.63;;;;;;;;;;10365660;28;20566;-71
2021/08/04 13:33:57;;;;;;;2.30;1.40;;;;;;;;;;10364344;28;20198;-70
2021/08/04 13:39:01;;;;;;;1.63;1.30;;;;;;;;;;10364685;28;20218;-70
2021/08/04 13:44:03;;;;;;;2.70;1.50;;;;;;;;;;10364671;28;20233;-69
2021/08/04 13:49:06;;;;;;;2.23;1.40;;;;;;;;;;10364517;28;20348;-73
2021/08/04 13:54:10;;;;;;;2.73;1.33;;;;;;;;;;10365083;28;20201;-69
2021/08/04 13:59:12;;;;;;;4.50;1.60;;;;;;;;;;10361194;28;20214;-71
2021/08/04 14:04:15;;;;;;;3.37;1.53;;;;;;;;;;10358057;28;20246;-71
2021/08/04 14:09:19;;;;;;;4.17;1.53;;;;;;;;;;10363268;28;20591;-73
2021/08/04 14:14:21;;;;;;;3.37;1.50;;;;;;;;;;10364443;28;20208;-71
2021/08/04 14:19:24;;;;;;;3.17;1.50;;;;;;;;;;10366280;28;20214;-72
2021/08/04 14:24:28;;;;;;;4.20;1.60;;;;;;;;;;10363653;28;20216;-72
2021/08/04 14:29:31;;;;;;;4.07;1.60;;;;;;;;;;10361325;28;20261;-71
2021/08/04 14:34:33;;;;;;;3.80;1.60;;;;;;;;;;10363409;28;20225;-71
2021/08/04 14:39:37;;;;;;;3.30;1.57;;;;;;;;;;10361759;28;20218;-70
2021/08/04 14:44:40;;;;;;;3.27;1.60;;;;;;;;;;10363847;28;20707;-71
2021/08/04 14:49:43;;;;;;;2.93;1.60;;;;;;;;;;10362217;28;20225;-71
2021/08/04 14:54:47;;;;;;;3.37;1.70;;;;;;;;;;10363738;28;20240;-71
2021/08/04 14:59:49;;;;;;;3.53;1.60;;;;;;;;;;10353981;28;20696;-72
2021/08/04 15:04:52;;;;;;;3.43;1.50;;;;;;;;;;10363497;28;20214;-69
2021/08/04 15:09:56;;;;;;;3.20;1.67;;;;;;;;;;10360404;28;20222;-72
2021/08/04 15:14:58;;;;;;;3.67;1.43;;;;;;;;;;10363986;28;20281;-72
2021/08/04 15:20:01;;;;;;;3.40;1.50;;;;;;;;;;10357982;28;20292;-72
2021/08/04 15:25:05;;;;;;;2.63;1.40;;;;;;;;;;10363031;28;20210;-72
2021/08/04 15:30:08;;;;;;;4.60;2.10;;;;;;;;;;10362013;28;20214;-71
2021/08/04 15:35:12;;;;;;;3.77;1.77;;;;;;;;;;10362612;28;20191;-71
2021/08/04 15:40:17;;;;;;;4.70;1.90;;;;;;;;;;10361551;28;20218;-73
2021/08/04 15:45:19;;;;;;;4.10;1.90;;;;;;;;;;10359958;28;20305;-73
2021/08/04 15:50:26;;;;;;;4.10;1.83;;;;;;;;;;10360331;28;20591;-72
2021/08/04 15:55:30;;;;;;;3.30;1.63;;;;;;;;;;10358176;28;20194;-72
2021/08/04 16:00:33;;;;;;;4.90;2.23;;;;;;;;;;10364408;28;20341;-71
2021/08/04 16:05:35;;;;;;;3.80;1.70;;;;;;;;;;10369029;28;20724;-70
2021/08/04 16:10:39;;;;;;;2.93;1.47;;;;;;;;;;10362181;28;20206;-72
2021/08/04 16:15:42;;;;;;;4.70;1.60;;;;;;;;;;10369567;28;22852;-72
2021/08/04 16:20:44;;;;;;;7.47;2.00;;;;;;;;;;10368206;28;20240;-72
2021/08/04 16:25:51;;;;;;;5.27;2.30;;;;;;;;;;10357670;28;20203;-71
2021/08/04 16:30:54;;;;;;;5.60;2.13;;;;;;;;;;10368160;28;20213;-71
2021/08/04 16:35:56;;;;;;;4.43;2.23;;;;;;;;;;10366705;28;21006;-69
2021/08/04 16:41:01;;;;;;;7.07;2.97;;;;;;;;;;10365447;28;20650;-70
2021/08/04 16:46:04;;;;;;;6.80;2.73;;;;;;;;;;10365440;28;20280;-73
2021/08/04 16:51:10;;;;;;;6.17;2.30;;;;;;;;;;10364511;28;20201;-72
2021/08/04 16:56:14;;;;;;;7.77;2.53;;;;;;;;;;10366808;28;20833;-72
2021/08/04 17:01:17;;;;;;;5.83;2.50;;;;;;;;;;10364292;28;20309;-71
2021/08/04 17:06:20;;;;;;;4.10;2.10;;;;;;;;;;10367738;28;20598;-71
2021/08/04 17:11:24;;;;;;;4.73;2.37;;;;;;;;;;10365558;28;20257;-70
2021/08/04 17:16:27;;;;;;;7.07;2.63;;;;;;;;;;10364119;28;20754;-71
2021/08/04 17:21:33;;;;;;;5.77;2.70;;;;;;;;;;10377264;28;20195;-72
2021/08/04 17:26:36;;;;;;;4.70;2.00;;;;;;;;;;10366103;28;20273;-72
2021/08/04 17:31:39;;;;;;;6.80;2.93;;;;;;;;;;10366517;28;20205;-71
2021/08/04 17:36:42;;;;;;;6.37;2.80;;;;;;;;;;10368432;28;20645;-73
2021/08/04 17:41:46;;;;;;;6.83;3.20;;;;;;;;;;10362574;28;20222;-73
2021/08/04 17:46:49;;;;;;;8.37;3.80;;;;;;;;;;10356043;28;20295;-71
2021/08/04 17:51:51;;;;;;;6.67;3.20;;;;;;;;;;10360343;28;20265;-71
2021/08/04 17:56:55;;;;;;;3.93;1.77;;;;;;;;;;10353564;28;20292;-72
2021/08/04 18:01:58;;;;;;;4.23;2.00;;;;;;;;;;10357449;28;20686;-73
2021/08/04 18:07:00;;;;;;;7.83;3.40;;;;;;;;;;10359102;28;20222;-71
2021/08/04 18:12:05;;;;;;;8.17;3.70;;;;;;;;;;10359194;28;20678;-71
2021/08/04 18:17:07;;;;;;;7.90;3.80;;;;;;;;;;10350060;28;20318;-74
2021/08/04 18:22:12;;;;;;;8.00;3.90;;;;;;;;;;10342742;28;20261;-73
2021/08/04 18:27:16;;;;;;;7.50;3.43;;;;;;;;;;10361904;28;20250;-74
2021/08/04 18:32:18;;;;;;;8.03;2.70;;;;;;;;;;10357554;28;20191;-72
2021/08/04 18:37:21;;;;;;;8.37;3.57;;;;;;;;;;10362868;28;20218;-73
2021/08/04 18:42:25;;;;;;;6.43;2.97;;;;;;;;;;10360452;28;20210;-72
2021/08/04 18:47:27;;;;;;;6.93;2.93;;;;;;;;;;10361705;28;20222;-72
2021/08/04 18:52:30;;;;;;;7.40;3.37;;;;;;;;;;10360913;28;20202;-71
2021/08/04 18:57:34;;;;;;;7.47;3.73;;;;;;;;;;10359730;28;20241;-74
2021/08/04 19:02:46;;;;;;;4.60;2.37;;;;;;;;;;10358795;28;20186;-72
2021/08/04 19:07:49;;;;;;;7.03;2.83;;;;;;;;;;10351731;28;20218;-72
2021/08/04 19:12:53;;;;;;;5.40;2.30;;;;;;;;;;10360137;28;20268;-73
2021/08/04 19:17:57;;;;;;;5.30;2.20;;;;;;;;;;10358440;28;20234;-72
2021/08/04 19:23:05;;;;;;;5.73;2.53;;;;;;;;;;10360888;28;20210;-71
2021/08/04 19:28:09;;;;;;;6.07;2.57;;;;;;;;;;10362554;28;20352;-75
2021/08/04 19:33:15;;;;;;;6.70;2.50;;;;;;;;;;10364658;28;20599;-72
2021/08/04 19:38:17;;;;;;;7.10;2.73;;;;;;;;;;10372179;28;20244;-70
2021/08/04 19:43:22;;;;;;;6.13;2.83;;;;;;;;;;10362591;28;20226;-73
2021/08/04 19:48:25;;;;;;;6.37;3.07;;;;;;;;;;10354514;28;20231;-74
2021/08/04 19:53:27;;;;;;;7.10;2.73;;;;;;;;;;10355440;28;20191;-74
2021/08/04 19:58:31;;;;;;;6.43;2.70;;;;;;;;;;10368378;28;20289;-74
2021/08/04 20:03:34;;;;;;;8.13;3.47;;;;;;;;;;10368010;28;20202;-74
2021/08/04 20:08:36;;;;;;;6.13;2.40;;;;;;;;;;10367402;28;20234;-74
2021/08/04 20:13:40;;;;;;;6.87;2.43;;;;;;;;;;10369885;28;20294;-73
2021/08/04 20:18:43;;;;;;;6.77;2.60;;;;;;;;;;10366600;28;20218;-73
2021/08/04 20:23:45;;;;;;;5.20;2.17;;;;;;;;;;10365603;28;20647;-72
2021/08/04 20:28:49;;;;;;;5.77;2.73;;;;;;;;;;10368049;28;20297;-73
2021/08/04 20:33:52;;;;;;;5.80;2.80;;;;;;;;;;10365526;28;20195;-76
2021/08/04 20:38:54;;;;;;;5.80;2.70;;;;;;;;;;10370457;28;20807;-73
2021/08/04 20:43:58;;;;;;;5.93;2.67;;;;;;;;;;10363531;28;20208;-74
2021/08/04 20:49:01;;;;;;;6.63;2.83;;;;;;;;;;10367536;28;20276;-73
2021/08/04 20:54:03;;;;;;;7.77;3.30;;;;;;;;;;10361254;28;20225;-73
2021/08/04 20:59:08;;;;;;;6.87;2.63;;;;;;;;;;10363823;28;20702;-73
2021/08/04 21:04:11;;;;;;;6.23;2.60;;;;;;;;;;10365304;28;20226;-76
2021/08/04 21:09:13;;;;;;;6.37;2.70;;;;;;;;;;10365815;28;20222;-78
2021/08/04 21:14:17;;;;;;;6.20;2.80;;;;;;;;;;10365248;28;20198;-77
2021/08/04 21:19:20;;;;;;;4.73;2.43;;;;;;;;;;10364010;28;20758;-78
2021/08/04 21:24:22;;;;;;;7.57;2.80;;;;;;;;;;10369138;28;20198;-78
2021/08/04 21:29:26;;;;;;;6.57;2.77;;;;;;;;;;10365009;28;20301;-75
2021/08/04 21:34:29;;;;;;;6.70;2.63;;;;;;;;;;10364250;28;20274;-80
2021/08/04 21:39:31;;;;;;;6.67;2.80;;;;;;;;;;10383133;28;20386;-79
2021/08/04 21:44:36;;;;;;;6.30;2.47;;;;;;;;;;10364793;28;20245;-77
2021/08/04 21:49:40;;;;;;;6.60;2.70;;;;;;;;;;10363898;28;20225;-76
2021/08/04 21:54:43;;;;;;;5.97;2.70;;;;;;;;;;10355045;28;20198;-76
2021/08/04 21:59:47;;;;;;;6.67;2.43;;;;;;;;;;10340596;28;20229;-76
2021/08/04 22:04:49;;;;;;;6.87;2.60;;;;;;;;;;10359957;28;20296;-75
2021/08/04 22:09:52;;;;;;;5.87;2.30;;;;;;;;;;10363516;28;20227;-74
2021/08/04 22:14:55;;;;;;;5.63;2.33;;;;;;;;;;10366011;28;20627;-76
2021/08/04 22:20:08;;;;;;;4.87;2.10;;;;;;;;;;10494858;27;1211504;-75
2021/08/04 22:25:10;;;;;;;5.30;2.00;;;;;;;;;;10515092;28;20337;-75
2021/08/04 22:30:13;;;;;;;4.97;1.90;;;;;;;;;;10515538;28;20211;-75
2021/08/04 22:35:17;;;;;;;4.97;2.30;;;;;;;;;;10502223;28;20220;-76
2021/08/04 22:40:20;;;;;;;5.80;2.30;;;;;;;;;;10505802;28;20251;-76
2021/08/04 22:45:24;;;;;;;6.03;2.47;;;;;;;;;;10514755;28;20614;-74
2021/08/04 22:50:28;;;;;;;5.80;2.80;;;;;;;;;;10505410;28;20262;-76
2021/08/04 22:55:30;;;;;;;6.40;2.50;;;;;;;;;;10506849;28;20223;-76
2021/08/04 23:00:33;;;;;;;5.23;2.30;;;;;;;;;;10516417;28;20640;-73
2021/08/04 23:05:36;;;;;;;6.03;2.40;;;;;;;;;;10504993;28;20188;-76
2021/08/04 23:10:39;;;;;;;5.70;2.37;;;;;;;;;;10509625;28;20232;-74
2021/08/04 23:15:42;;;;;;;7.57;3.00;;;;;;;;;;10505104;28;20200;-76
2021/08/04 23:20:46;;;;;;;4.77;2.17;;;;;;;;;;10513755;28;20555;-77
2021/08/04 23:25:48;;;;;;;4.30;2.00;;;;;;;;;;10506545;28;20255;-74
2021/08/04 23:30:51;;;;;;;4.40;2.00;;;;;;;;;;10488889;28;20222;-74
2021/08/04 23:35:55;;;;;;;4.50;1.93;;;;;;;;;;10475376;28;20545;-76
2021/08/04 23:40:57;;;;;;;4.80;2.00;;;;;;;;;;10475017;28;20825;-77
2021/08/04 23:46:00;;;;;;;4.57;2.00;;;;;;;;;;10480768;28;20219;-76
2021/08/04 23:51:04;;;;;;;6.10;2.23;;;;;;;;;;10486351;28;20201;-76
2021/08/04 23:56:07;;;;;;;5.03;2.10;;;;;;;;;;10475736;28;20221;-74
